Time;durP1;ratioP1;P1;durP2;ratioP2;P2;SDS_P1;SDS_P2;PMS_P1;PMS_P2;Temp;Humidity;BMP_temperature;BMP_pressure;BME280_temperature;BME280_humidity;BME280_pressure;Samples;Min_cycle;Max_cycle;Signal;HPM_P1;HPM_P2
2022/12/23 00:02:18;;;;;;;;;2.00;0.00;;;;;15.69;78.75;100440.63;5082856;27;46199;-59
2022/12/23 00:04:44;;;;;;;;;0.00;0.00;;;;;15.63;78.38;100424.81;5106915;27;45463;-59
2022/12/23 00:07:09;;;;;;;;;0.00;0.00;;;;;15.61;78.57;100426.75;5110461;27;45411;-58
2022/12/23 00:09:34;;;;;;;;;0.00;0.00;;;;;15.74;78.80;100454.66;5093773;27;45378;-58
2022/12/23 00:17:28;;;;;;;;;0.00;0.00;;;;;15.68;79.42;100446.94;5115159;27;45413;-58
2022/12/23 00:19:53;;;;;;;;;0.50;0.00;;;;;15.69;78.82;100444.16;5093337;27;45587;-59
2022/12/23 00:22:18;;;;;;;;;0.00;0.00;;;;;15.67;79.07;100445.19;5086512;27;46099;-59
2022/12/23 00:24:44;;;;;;;;;0.00;0.00;;;;;15.65;79.10;100448.00;5089166;27;45366;-59
2022/12/23 00:27:09;;;;;;;;;0.00;0.00;;;;;15.65;79.11;100453.38;5081324;27;45617;-58
2022/12/23 00:29:34;;;;;;;;;0.00;0.00;;;;;15.65;79.15;100455.19;5078385;27;45730;-59
2022/12/23 00:32:00;;;;;;;;;0.00;0.00;;;;;15.60;79.18;100443.84;5100408;27;45493;-59
2022/12/23 00:34:25;;;;;;;;;0.00;0.00;;;;;15.61;79.25;100443.75;5082813;27;45472;-59
2022/12/23 00:36:50;;;;;;;;;0.00;0.00;;;;;15.65;79.04;100450.69;5103515;27;45462;-58
2022/12/23 00:44:44;;;;;;;;;0.00;0.00;;;;;15.63;79.58;100440.97;5100113;27;45727;-59
2022/12/23 00:49:40;;;;;;;;;0.00;0.00;;;;;15.62;79.75;100448.19;5089457;27;45637;-59
2022/12/23 00:49:54;;;;;;;;;0.00;0.00;;;;;15.62;80.05;100455.38;5078570;27;46660;-59
2022/12/23 00:52:20;;;;;;;;;1.50;1.00;;;;;15.52;80.03;100447.84;5100987;27;45453;-58
2022/12/23 00:54:45;;;;;;;;;0.00;0.00;;;;;15.57;80.18;100458.34;5113062;27;45371;-59
2022/12/23 00:57:10;;;;;;;;;0.00;0.00;;;;;15.56;80.25;100460.16;5064370;27;45510;-59
2022/12/23 00:59:36;;;;;;;;;0.25;0.00;;;;;15.57;80.49;100471.78;5093505;27;45539;-59
2022/12/23 01:07:29;;;;;;;;;0.00;0.00;;;;;15.56;80.76;100481.66;5095121;27;45410;-59
2022/12/23 01:09:54;;;;;;;;;1.00;1.00;;;;;15.56;80.87;100488.88;5098430;27;45417;-58
2022/12/23 01:12:20;;;;;;;;;0.00;0.00;;;;;15.56;80.71;100487.03;5095705;27;48332;-59
2022/12/23 01:14:45;;;;;;;;;0.00;0.00;;;;;15.57;80.91;100493.31;5099317;27;45382;-59
2022/12/23 01:17:11;;;;;;;;;0.00;0.00;;;;;15.49;81.05;100482.97;5096628;27;45445;-59
2022/12/23 01:19:36;;;;;;;;;0.00;0.00;;;;;15.49;81.27;100491.06;5099843;27;45381;-58
2022/12/23 01:22:02;;;;;;;;;0.00;0.00;;;;;15.45;81.35;100486.81;5081097;27;47476;-58
2022/12/23 01:24:29;;;;;;;;;0.50;0.50;;;;;15.46;81.26;100476.91;5099201;27;45421;-59
2022/12/23 01:26:55;;;;;;;;;0.00;0.00;;;;;15.41;81.34;100474.47;5112835;27;45363;-59
2022/12/23 01:29:20;;;;;;;;;0.00;0.00;;;;;15.41;81.67;100476.31;5101593;27;45246;-58
2022/12/23 01:31:45;;;;;;;;;0.00;0.00;;;;;15.41;81.57;100482.53;5093862;27;45493;-58
2022/12/23 01:34:11;;;;;;;;;1.00;1.00;;;;;15.43;81.65;100483.31;5081799;27;45263;-59
2022/12/23 01:36:36;;;;;;;;;0.00;0.00;;;;;15.41;81.59;100477.16;5097106;27;45315;-58
2022/12/23 01:39:02;;;;;;;;;0.00;0.00;;;;;15.44;81.73;100485.06;5102995;27;45261;-58
2022/12/23 01:44:48;;;;;;;;;1.00;1.00;;;;;15.46;81.89;100487.69;5109212;27;45532;-58
2022/12/23 01:47:25;;;;;;;;;0.00;0.00;;;;;15.44;81.83;100487.75;5081965;27;45256;-59
2022/12/23 01:49:58;;;;;;;;;0.00;0.00;;;;;15.42;81.90;100489.69;5105634;27;45449;-59
2022/12/23 01:52:24;;;;;;;;;1.25;0.00;;;;;15.46;81.88;100496.59;5109840;27;47904;-59
2022/12/23 01:54:50;;;;;;;;;0.00;0.00;;;;;15.45;81.44;100497.56;5088474;27;45419;-59
2022/12/23 01:57:16;;;;;;;;;0.00;0.00;;;;;15.46;81.74;100491.22;5089702;27;45335;-58
2022/12/23 02:05:15;;;;;;;;;0.75;0.75;;;;;15.46;81.65;100485.84;5089455;27;45366;-58
2022/12/23 02:10:35;;;;;;;;;0.00;0.00;;;;;15.46;81.71;100482.28;5089888;27;45445;-59
2022/12/23 02:16:15;;;;;;;;;1.00;0.00;;;;;15.45;81.72;100484.13;5086494;27;46722;-58
2022/12/23 02:16:31;;;;;;;;;0.00;0.00;;;;;15.49;81.80;100500.97;5088172;27;45457;-59
2022/12/23 02:18:59;;;;;;;;;0.50;0.50;;;;;15.49;81.88;100498.25;5091527;27;45393;-58
2022/12/23 02:21:37;;;;;;;;;0.50;0.50;;;;;15.49;81.76;100492.88;5097279;27;45651;-59
2022/12/23 02:24:08;;;;;;;;;1.00;1.00;;;;;15.44;81.74;100477.00;5080745;27;47319;-58
2022/12/23 02:26:57;;;;;;;;;1.00;0.00;;;;;15.46;81.78;100483.16;5077919;28;45400;-59
2022/12/23 02:29:50;;;;;;;;;0.00;0.00;;;;;15.45;81.93;100476.06;5087000;27;45429;-59
2022/12/23 02:32:28;;;;;;;;;0.50;0.50;;;;;15.41;81.57;100474.47;5096951;27;45392;-59
2022/12/23 02:35:35;;;;;;;;;0.75;0.75;;;;;15.43;81.85;100485.16;5082503;27;47526;-59
2022/12/23 02:38:09;;;;;;;;;2.25;0.00;;;;;15.43;81.84;100483.31;5080606;27;46071;-59
2022/12/23 02:41:04;;;;;;;;;0.00;0.00;;;;;15.41;81.57;100487.94;5079994;27;45410;-59
2022/12/23 02:43:44;;;;;;;;;0.25;0.25;;;;;15.40;81.70;100477.25;5103977;27;45338;-59
2022/12/23 02:46:29;;;;;;;;;0.00;0.00;;;;;15.42;81.68;100486.09;5106058;27;45571;-59
2022/12/23 02:48:59;;;;;;;;;2.00;0.00;;;;;15.42;81.43;100480.72;5099574;27;45626;-59
2022/12/23 02:51:30;;;;;;;;;1.00;0.00;;;;;15.42;81.66;100470.84;5079585;27;45266;-59
2022/12/23 02:53:59;;;;;;;;;1.00;0.75;;;;;15.37;81.40;100473.78;5080530;27;45593;-59
2022/12/23 02:56:28;;;;;;;;;1.25;0.00;;;;;15.39;81.29;100473.72;5077533;27;47627;-59
2022/12/23 02:59:23;;;;;;;;;0.50;0.00;;;;;15.43;81.44;100477.94;5061783;27;45498;-59
2022/12/23 03:01:51;;;;;;;;;1.00;1.00;;;;;15.39;81.18;100476.41;5084195;27;45438;-59
2022/12/23 03:04:17;;;;;;;;;2.50;1.00;;;;;15.38;80.94;100482.72;5080547;27;45907;-59
2022/12/23 03:06:47;;;;;;;;;0.00;0.00;;;;;15.32;81.23;100475.88;5099775;27;45387;-59
2022/12/23 03:09:41;;;;;;;;;0.00;0.00;;;;;15.41;81.04;100485.25;5076030;27;45485;-59
2022/12/23 03:12:25;;;;;;;;;1.00;1.00;;;;;15.41;81.07;100481.69;5048805;28;45453;-59
2022/12/23 03:15:23;;;;;;;;;3.00;0.00;;;;;15.37;81.02;100476.47;5090748;27;45342;-58
2022/12/23 03:18:12;;;;;;;;;0.75;0.75;;;;;15.36;80.96;100465.81;5093026;27;45319;-59
2022/12/23 03:21:01;;;;;;;;;1.00;1.00;;;;;15.40;80.78;100467.34;5102025;27;45389;-59
2022/12/23 03:23:42;;;;;;;;;0.00;0.00;;;;;15.35;81.12;100448.81;5115842;27;45309;-59
2022/12/23 03:26:16;;;;;;;;;1.00;1.00;;;;;15.37;80.84;100463.03;5088798;27;45327;-59
2022/12/23 03:29:10;;;;;;;;;0.00;0.00;;;;;15.40;80.71;100463.81;5096046;27;45499;-59
2022/12/23 03:31:38;;;;;;;;;0.00;0.00;;;;;15.37;80.85;100464.88;5078612;27;45369;-58
2022/12/23 03:34:09;;;;;;;;;3.00;0.50;;;;;15.36;80.64;100472.03;5083659;27;45551;-59
2022/12/23 03:36:39;;;;;;;;;1.25;0.75;;;;;15.31;80.75;100459.81;5100877;27;45465;-59
2022/12/23 03:39:08;;;;;;;;;2.00;0.00;;;;;15.34;80.56;100473.09;5100027;27;46265;-59
2022/12/23 03:41:39;;;;;;;;;3.00;1.00;;;;;15.31;80.31;100463.38;5118430;27;45555;-58
2022/12/23 03:44:19;;;;;;;;;0.50;0.50;;;;;15.34;80.64;100473.97;5104178;27;45358;-59
2022/12/23 03:46:52;;;;;;;;;0.00;0.00;;;;;15.35;80.54;100478.41;5083335;27;46245;-59
2022/12/23 03:49:24;;;;;;;;;1.75;1.00;;;;;15.34;80.10;100467.72;5082886;27;47388;-58
2022/12/23 03:51:58;;;;;;;;;2.00;1.00;;;;;15.31;80.62;100467.91;5101710;27;45480;-59
2022/12/23 03:54:38;;;;;;;;;1.00;0.00;;;;;15.30;80.41;100469.72;5113187;27;45484;-58
2022/12/23 03:57:06;;;;;;;;;1.00;0.00;;;;;15.32;80.57;100473.19;5083645;27;45325;-58
2022/12/23 03:59:39;;;;;;;;;1.50;0.00;;;;;15.31;80.45;100473.28;5086488;27;46333;-59
2022/12/23 04:02:13;;;;;;;;;0.75;0.00;;;;;15.33;80.47;100476.72;5101546;27;45430;-58
2022/12/23 04:05:13;;;;;;;;;1.00;1.00;;;;;15.33;80.54;100482.13;5080034;27;45466;-59
2022/12/23 04:07:55;;;;;;;;;0.00;0.00;;;;;15.29;80.50;100467.13;5094094;27;45677;-59
2022/12/23 04:10:21;;;;;;;;;2.00;0.00;;;;;15.30;80.42;100452.69;5089811;27;48269;-59
2022/12/23 04:12:48;;;;;;;;;3.00;1.50;;;;;15.32;80.69;100448.13;5082578;27;45420;-58
2022/12/23 04:15:18;;;;;;;;;2.00;0.50;;;;;15.30;80.54;100437.44;5082905;27;45419;-59
2022/12/23 04:17:44;;;;;;;;;0.00;0.00;;;;;15.31;80.58;100446.38;5107178;27;45347;-59
2022/12/23 04:20:09;;;;;;;;;1.00;0.75;;;;;15.29;80.61;100440.22;5084603;27;48305;-59
2022/12/23 04:22:35;;;;;;;;;1.75;0.75;;;;;15.23;80.55;100430.66;5100871;27;45599;-58
2022/12/23 04:25:00;;;;;;;;;0.50;0.00;;;;;15.33;80.67;100449.84;5082383;27;45782;-59
2022/12/23 04:27:25;;;;;;;;;0.75;0.75;;;;;15.34;80.51;100459.66;5082741;27;45510;-58
2022/12/23 04:29:51;;;;;;;;;0.00;0.00;;;;;15.31;80.40;100458.00;5080515;27;48931;-59
2022/12/23 04:32:16;;;;;;;;;4.75;4.75;;;;;15.30;80.90;100464.34;5078478;27;45474;-59
2022/12/23 04:34:41;;;;;;;;;4.50;4.50;;;;;15.34;80.46;100467.72;5092999;27;45708;-58
2022/12/23 04:37:07;;;;;;;;;3.75;1.25;;;;;15.31;80.52;100462.50;5101852;27;45762;-59
2022/12/23 04:39:32;;;;;;;;;5.00;2.00;;;;;15.28;80.67;100455.47;5071425;27;47136;-59
2022/12/23 04:41:57;;;;;;;;;1.25;1.00;;;;;15.30;80.67;100452.69;5105841;27;45402;-59
2022/12/23 04:44:23;;;;;;;;;1.00;1.00;;;;;15.26;80.81;100445.78;5109182;27;45404;-59
2022/12/23 04:46:48;;;;;;;;;2.50;1.25;;;;;15.24;80.75;100437.78;5099373;27;45359;-59
2022/12/23 04:49:13;;;;;;;;;1.00;1.00;;;;;15.30;80.55;100441.94;5074551;27;48224;-59
2022/12/23 04:51:39;;;;;;;;;1.75;1.00;;;;;15.24;80.72;100431.56;5099497;27;45482;-59
2022/12/23 04:54:04;;;;;;;;;2.75;0.75;;;;;15.26;80.83;100427.81;5081992;27;45406;-59
2022/12/23 04:56:30;;;;;;;;;2.00;2.00;;;;;15.30;80.61;100429.38;5074860;27;45551;-59
2022/12/23 04:58:55;;;;;;;;;2.00;1.00;;;;;15.25;80.66;100423.41;5081052;27;47476;-59
2022/12/23 05:01:20;;;;;;;;;1.25;1.00;;;;;15.23;80.96;100419.91;5077981;27;45954;-59
2022/12/23 05:03:46;;;;;;;;;3.50;2.00;;;;;15.25;80.75;100436.84;5091006;27;45330;-59
2022/12/23 05:06:11;;;;;;;;;4.00;2.00;;;;;15.18;80.96;100425.56;5081502;27;45535;-59
2022/12/23 05:08:36;;;;;;;;;2.00;0.50;;;;;15.26;81.01;100432.34;5101305;27;45432;-59
2022/12/23 05:11:02;;;;;;;;;2.75;0.50;;;;;15.22;80.98;100434.34;5101009;27;45287;-59
2022/12/23 05:13:27;;;;;;;;;1.00;1.00;;;;;15.22;80.78;100420.88;5100308;27;45344;-59
2022/12/23 05:15:54;;;;;;;;;2.00;2.00;;;;;15.24;80.76;100426.19;5092757;27;45313;-59
2022/12/23 05:18:20;;;;;;;;;2.50;2.50;;;;;15.27;81.00;100428.66;5071154;28;46869;-59
2022/12/23 05:20:46;;;;;;;;;2.75;2.00;;;;;15.27;80.75;100445.69;5098127;27;45571;-59
2022/12/23 05:23:11;;;;;;;;;2.75;2.00;;;;;15.20;80.96;100422.78;5081405;27;45434;-59
2022/12/23 05:25:38;;;;;;;;;3.75;1.50;;;;;15.26;81.03;100427.81;5087087;27;45357;-58
2022/12/23 05:28:04;;;;;;;;;3.75;2.00;;;;;15.21;80.95;100423.66;5092651;27;46340;-59
2022/12/23 05:30:30;;;;;;;;;2.00;1.00;;;;;15.25;81.02;100427.91;5083967;27;45275;-58
2022/12/23 05:32:56;;;;;;;;;1.00;1.00;;;;;15.25;81.18;100427.91;5090845;27;45352;-59
2022/12/23 05:35:23;;;;;;;;;0.50;0.25;;;;;15.26;81.26;100422.44;5071993;27;46291;-59
2022/12/23 05:37:48;;;;;;;;;4.50;3.00;;;;;15.25;81.50;100419.81;5098338;27;45306;-58
2022/12/23 05:40:13;;;;;;;;;3.50;2.00;;;;;15.27;81.52;100421.50;5083536;27;45307;-59
2022/12/23 05:42:39;;;;;;;;;2.00;2.00;;;;;15.28;81.18;100408.91;5081704;27;45331;-59
2022/12/23 05:45:05;;;;;;;;;1.00;1.00;;;;;15.27;81.53;100418.81;5098255;27;45622;-59
2022/12/23 05:47:30;;;;;;;;;1.75;1.00;;;;;15.30;81.47;100415.06;5096072;27;46975;-59
2022/12/23 05:49:56;;;;;;;;;1.75;1.75;;;;;15.28;81.60;100398.16;5078470;27;45372;-59
2022/12/23 05:52:21;;;;;;;;;2.00;2.00;;;;;15.28;81.75;100398.16;5099768;27;45400;-59
2022/12/23 05:54:46;;;;;;;;;1.75;1.75;;;;;15.27;81.84;100394.59;5079765;27;45529;-59
2022/12/23 05:57:12;;;;;;;;;3.25;1.00;;;;;15.25;81.70;100393.81;5076091;27;45478;-59
2022/12/23 05:59:37;;;;;;;;;1.00;1.00;;;;;15.29;81.82;100398.06;5098991;27;45384;-59
2022/12/23 06:02:02;;;;;;;;;3.00;2.00;;;;;15.28;82.14;100392.78;5079457;27;45373;-59
2022/12/23 06:04:28;;;;;;;;;1.50;1.50;;;;;15.27;82.11;100391.91;5094871;27;45416;-59
2022/12/23 06:06:53;;;;;;;;;1.00;1.00;;;;;15.28;82.15;100395.47;5080833;27;45964;-59
2022/12/23 06:09:18;;;;;;;;;2.00;2.00;;;;;15.27;82.26;100391.03;5080611;27;45925;-59
2022/12/23 06:11:44;;;;;;;;;1.75;1.75;;;;;15.30;82.20;100398.91;5098608;27;45355;-59
2022/12/23 06:14:09;;;;;;;;;1.50;1.50;;;;;15.27;82.23;100394.59;5096319;27;46124;-59
2022/12/23 06:16:34;;;;;;;;;2.00;0.25;;;;;15.32;82.07;100394.34;5109539;27;45326;-59
2022/12/23 06:19:00;;;;;;;;;3.25;1.75;;;;;15.31;82.28;100390.75;5084963;27;45265;-59
2022/12/23 06:21:25;;;;;;;;;1.50;1.50;;;;;15.26;82.46;100376.72;5080409;27;45354;-58
2022/12/23 06:23:51;;;;;;;;;2.00;2.00;;;;;15.31;82.38;100389.91;5094433;27;45310;-59
2022/12/23 06:26:16;;;;;;;;;2.00;2.00;;;;;15.30;82.33;100388.16;5099604;27;46147;-59
2022/12/23 06:28:41;;;;;;;;;4.00;4.00;;;;;15.31;82.56;100398.84;5103588;27;45286;-59
2022/12/23 06:31:07;;;;;;;;;4.25;2.25;;;;;15.30;82.58;100398.91;5077979;27;45391;-59
2022/12/23 06:33:32;;;;;;;;;3.00;2.25;;;;;15.32;82.50;100389.81;5090067;27;45591;-59
2022/12/23 06:35:57;;;;;;;;;1.25;1.25;;;;;15.30;82.59;100380.09;5087307;27;47366;-59
2022/12/23 06:38:23;;;;;;;;;2.00;2.00;;;;;15.31;82.86;100381.84;5098877;27;45429;-59
2022/12/23 06:40:48;;;;;;;;;4.00;2.00;;;;;15.31;82.76;100381.84;5092360;27;45300;-59
2022/12/23 06:43:14;;;;;;;;;2.00;1.75;;;;;15.25;82.77;100361.56;5075288;27;45494;-59
2022/12/23 06:45:39;;;;;;;;;2.00;2.00;;;;;15.28;82.72;100357.81;5081711;27;46234;-59
2022/12/23 06:48:05;;;;;;;;;2.00;2.00;;;;;15.25;82.66;100355.28;5080529;27;45559;-59
2022/12/23 06:50:31;;;;;;;;;1.50;1.50;;;;;15.31;82.87;100360.31;5082407;27;45616;-58
2022/12/23 06:52:56;;;;;;;;;1.25;1.00;;;;;15.32;82.86;100370.13;5077328;27;45873;-59
2022/12/23 06:55:21;;;;;;;;;5.25;5.25;;;;;15.33;82.92;100367.34;5082058;27;45616;-58
2022/12/23 06:57:47;;;;;;;;;1.00;1.00;;;;;15.35;82.84;100361.88;5088934;27;45410;-58
2022/12/23 07:00:13;;;;;;;;;1.25;1.00;;;;;15.32;82.82;100356.69;5078790;27;45575;-58
2022/12/23 07:02:38;;;;;;;;;0.00;0.00;;;;;15.29;82.82;100343.44;5079985;27;46699;-58
2022/12/23 07:05:05;;;;;;;;;1.00;1.00;;;;;15.31;83.00;100346.88;5071276;27;46790;-58
2022/12/23 07:07:31;;;;;;;;;0.00;0.00;;;;;15.33;82.90;100345.81;5075805;27;45431;-58
2022/12/23 07:09:57;;;;;;;;;1.00;1.00;;;;;15.35;82.79;100337.66;5079126;27;45477;-58
2022/12/23 07:12:22;;;;;;;;;3.00;2.25;;;;;15.37;83.04;100333.94;5073431;27;45728;-58
2022/12/23 07:14:48;;;;;;;;;2.00;1.00;;;;;15.40;83.02;100332.03;5073783;27;45248;-58
2022/12/23 07:17:13;;;;;;;;;1.00;1.00;;;;;15.41;82.97;100341.84;5079619;27;46802;-61
2022/12/23 07:19:40;;;;;;;;;1.25;1.00;;;;;15.38;83.26;100341.06;5072885;27;45431;-61
2022/12/23 07:22:06;;;;;;;;;1.50;1.50;;;;;15.40;82.93;100340.94;5075252;27;45554;-61
2022/12/23 07:24:31;;;;;;;;;1.25;1.00;;;;;15.34;83.08;100328.75;5091987;27;45506;-60
2022/12/23 07:26:56;;;;;;;;;1.00;1.00;;;;;15.36;83.35;100323.28;5086807;27;45442;-61
2022/12/23 07:29:22;;;;;;;;;2.00;1.00;;;;;15.33;83.36;100324.31;5087015;27;45693;-61
2022/12/23 07:31:47;;;;;;;;;3.00;3.00;;;;;15.40;83.45;100326.66;5071606;27;45645;-61
2022/12/23 07:34:12;;;;;;;;;1.00;1.00;;;;;15.38;83.13;100333.00;5093451;27;45665;-61
2022/12/23 07:36:38;;;;;;;;;1.00;1.00;;;;;15.40;83.22;100332.88;5102077;27;45558;-61
2022/12/23 07:39:03;;;;;;;;;0.00;0.00;;;;;15.40;83.45;100340.94;5103460;27;45413;-61
2022/12/23 07:41:29;;;;;;;;;2.25;2.00;;;;;15.37;83.39;100328.56;5096974;27;45639;-61
2022/12/23 07:43:54;;;;;;;;;1.75;1.00;;;;;15.42;83.36;100331.00;5101670;27;46441;-61
2022/12/23 07:46:20;;;;;;;;;1.00;1.00;;;;;15.35;83.49;100337.66;5095060;27;45463;-61
2022/12/23 07:48:45;;;;;;;;;1.00;1.00;;;;;15.41;83.32;100341.84;5096502;27;45496;-61
2022/12/23 07:51:10;;;;;;;;;1.00;1.00;;;;;15.38;83.43;100340.19;5102322;27;45305;-61
2022/12/23 07:53:36;;;;;;;;;0.00;0.00;;;;;15.44;83.23;100333.59;5095929;27;45369;-61
2022/12/23 07:56:01;;;;;;;;;0.00;0.00;;;;;15.44;83.25;100337.13;5094135;27;45425;-59
2022/12/23 07:58:26;;;;;;;;;0.00;0.00;;;;;15.42;83.46;100336.38;5102400;27;45492;-58
2022/12/23 08:01:04;;;;;;;;;0.00;0.00;;;;;15.41;83.45;100328.38;5101172;27;45433;-59
2022/12/23 08:03:29;;;;;;;;;0.00;0.00;;;;;15.42;83.29;100331.00;5101267;27;45330;-59
2022/12/23 08:06:03;;;;;;;;;0.75;0.00;;;;;15.41;83.38;100325.69;5098485;27;45686;-58
2022/12/23 08:08:29;;;;;;;;;1.00;0.00;;;;;15.42;83.20;100330.09;5100117;27;45302;-59
2022/12/23 08:11:06;;;;;;;;;0.00;0.00;;;;;15.41;83.67;100323.88;5093008;27;47067;-59
2022/12/23 08:13:33;;;;;;;;;0.00;0.00;;;;;15.41;83.47;100331.94;5079176;27;47358;-61
2022/12/23 08:16:00;;;;;;;;;0.00;0.00;;;;;15.41;83.52;100329.25;5093668;27;45383;-58
2022/12/23 08:18:28;;;;;;;;;0.75;0.00;;;;;15.42;83.55;100313.97;5097921;27;45402;-59
2022/12/23 08:21:03;;;;;;;;;0.25;0.25;;;;;15.42;83.48;100322.91;5085078;27;45521;-59
2022/12/23 08:23:29;;;;;;;;;1.00;0.00;;;;;15.45;83.34;100319.16;5090891;27;46744;-59
2022/12/23 08:26:01;;;;;;;;;0.00;0.00;;;;;15.45;83.39;100311.09;5083907;27;45502;-59
2022/12/23 08:28:27;;;;;;;;;0.00;0.00;;;;;15.43;83.73;100296.88;5099705;27;45267;-59
2022/12/23 08:30:52;;;;;;;;;0.00;0.00;;;;;15.43;83.57;100305.81;5098179;27;45338;-59
2022/12/23 08:33:18;;;;;;;;;0.00;0.00;;;;;15.45;83.43;100311.09;5097133;27;45504;-59
2022/12/23 08:35:43;;;;;;;;;0.00;0.00;;;;;15.39;83.36;100288.13;5094083;27;45869;-59
2022/12/23 08:38:08;;;;;;;;;1.00;0.75;;;;;15.51;83.47;100302.66;5092312;27;45408;-59
2022/12/23 08:40:34;;;;;;;;;0.00;0.00;;;;;15.51;83.47;100297.28;5095333;27;45430;-59
2022/12/23 08:42:59;;;;;;;;;0.25;0.00;;;;;15.51;83.17;100289.22;5099522;27;46554;-59
2022/12/23 08:45:25;;;;;;;;;0.25;0.00;;;;;15.54;83.15;100287.22;5104971;27;45375;-58
2022/12/23 08:47:51;;;;;;;;;0.00;0.00;;;;;15.60;83.30;100295.88;5099530;27;45417;-59
2022/12/23 08:50:19;;;;;;;;;0.00;0.00;;;;;15.60;83.17;100277.03;5080068;27;45584;-59
2022/12/23 08:52:45;;;;;;;;;1.00;1.00;;;;;15.60;83.24;100279.72;5098913;27;45388;-59
2022/12/23 08:55:10;;;;;;;;;1.00;1.00;;;;;15.59;83.26;100269.94;5103490;27;45387;-58
2022/12/23 08:57:35;;;;;;;;;0.00;0.00;;;;;15.59;83.06;100273.50;5084152;27;45354;-59
2022/12/23 09:00:01;;;;;;;;;0.00;0.00;;;;;15.58;83.45;100258.28;5078780;27;45304;-59
2022/12/23 09:02:26;;;;;;;;;2.00;1.00;;;;;15.61;83.18;100259.94;5089032;27;45604;-59
2022/12/23 09:04:51;;;;;;;;;0.25;0.25;;;;;15.60;83.25;100247.44;5085556;27;45349;-58
2022/12/23 09:07:17;;;;;;;;;0.00;0.00;;;;;15.57;83.17;100235.06;5091874;27;45593;-59
2022/12/23 09:09:42;;;;;;;;;0.00;0.00;;;;;15.63;83.16;100229.28;5096966;27;45334;-58
2022/12/23 09:12:07;;;;;;;;;0.50;0.50;;;;;15.65;83.09;100196.91;5095512;27;46498;-58
2022/12/23 09:14:33;;;;;;;;;0.25;0.00;;;;;15.66;83.16;100172.59;5074812;27;45394;-59
2022/12/23 09:16:58;;;;;;;;;0.50;0.50;;;;;15.64;82.96;100146.78;5095140;27;45449;-59
2022/12/23 09:19:23;;;;;;;;;1.00;0.75;;;;;15.62;83.26;100146.84;5095151;27;45461;-59
2022/12/23 09:21:48;;;;;;;;;0.00;0.00;;;;;15.59;83.17;100144.34;5091079;27;46292;-59
2022/12/23 09:24:14;;;;;;;;;0.25;0.25;;;;;15.62;83.29;100157.63;5089216;27;45314;-59
2022/12/23 09:26:39;;;;;;;;;0.00;0.00;;;;;15.62;83.35;100186.31;5097323;27;45279;-59
2022/12/23 09:29:04;;;;;;;;;0.00;0.00;;;;;15.65;83.15;100211.25;5079517;27;45977;-59
2022/12/23 09:31:30;;;;;;;;;0.25;0.25;;;;;15.63;82.97;100218.50;5094901;27;45591;-59
2022/12/23 09:33:55;;;;;;;;;0.00;0.00;;;;;15.69;83.16;100236.13;5092947;27;45533;-59
2022/12/23 09:36:21;;;;;;;;;0.00;0.00;;;;;15.68;83.36;100237.06;5079523;27;45422;-59
2022/12/23 09:38:51;;;;;;;;;1.00;1.00;;;;;15.66;83.32;100239.84;5087988;27;45554;-59
2022/12/23 09:41:33;;;;;;;;;0.00;0.00;;;;;15.66;83.41;100234.47;5091894;27;45840;-59
2022/12/23 09:44:17;;;;;;;;;0.00;0.00;;;;;15.67;83.38;100246.09;5093751;27;45443;-59
2022/12/23 09:46:52;;;;;;;;;1.75;0.00;;;;;15.69;83.10;100246.88;5093844;27;45423;-59
2022/12/23 09:49:21;;;;;;;;;0.00;0.00;;;;;15.71;83.32;100236.88;5097242;27;45507;-59
2022/12/23 09:51:48;;;;;;;;;0.00;0.00;;;;;15.68;83.39;100240.63;5090558;27;45428;-59
2022/12/23 09:54:23;;;;;;;;;3.00;3.00;;;;;15.71;83.31;100253.88;5089836;27;45334;-59
2022/12/23 09:57:02;;;;;;;;;1.00;1.00;;;;;15.71;83.40;100253.03;5091371;27;45386;-58
2022/12/23 09:59:46;;;;;;;;;1.00;0.00;;;;;15.74;83.36;100251.00;5098408;27;45355;-59
2022/12/23 10:02:28;;;;;;;;;0.00;0.00;;;;;15.77;83.21;100241.94;5096779;27;45655;-59
2022/12/23 10:05:04;;;;;;;;;0.00;0.00;;;;;15.74;83.24;100237.56;5093989;27;45336;-58
2022/12/23 10:07:47;;;;;;;;;0.00;0.00;;;;;15.80;83.21;100248.94;5097276;27;45351;-59
2022/12/23 10:10:19;;;;;;;;;1.00;0.00;;;;;15.81;83.24;100231.84;5090961;27;45314;-58
2022/12/23 10:12:49;;;;;;;;;0.00;0.00;;;;;15.81;83.22;100242.59;5086923;27;46061;-59
2022/12/23 10:15:41;;;;;;;;;1.00;0.00;;;;;15.82;83.24;100238.94;5094986;27;46082;-58
2022/12/23 10:18:39;;;;;;;;;0.00;0.00;;;;;15.82;83.14;100222.78;5102541;27;45504;-58
2022/12/23 10:21:23;;;;;;;;;2.75;2.00;;;;;15.85;83.10;100222.59;5098466;27;45575;-58
2022/12/23 10:23:51;;;;;;;;;0.00;0.00;;;;;15.87;83.16;100217.97;5097885;27;45598;-59
2022/12/23 10:26:38;;;;;;;;;0.00;0.00;;;;;15.85;83.19;100218.06;5098417;27;45661;-59
2022/12/23 10:29:31;;;;;;;;;0.00;0.00;;;;;15.87;83.52;100226.06;5100188;27;45517;-59
2022/12/23 10:32:30;;;;;;;;;0.00;0.00;;;;;15.88;83.51;100225.09;5100782;27;45418;-59
2022/12/23 10:35:18;;;;;;;;;0.00;0.00;;;;;15.89;83.47;100225.00;5100829;27;45672;-58
2022/12/23 10:37:56;;;;;;;;;0.00;0.00;;;;;15.88;83.71;100225.09;5089147;27;45327;-58
2022/12/23 10:40:33;;;;;;;;;1.00;0.00;;;;;15.92;83.74;100232.00;5099521;27;45392;-58
2022/12/23 10:43:15;;;;;;;;;1.00;0.00;;;;;15.88;83.86;100215.19;5099185;27;45339;-58
2022/12/23 10:45:56;;;;;;;;;0.00;0.00;;;;;15.95;83.78;100228.28;5109727;27;45480;-58
2022/12/23 10:48:53;;;;;;;;;0.75;0.00;;;;;15.96;83.68;100224.63;5106066;27;45467;-58
2022/12/23 10:51:28;;;;;;;;;0.00;0.00;;;;;15.95;83.66;100212.13;5103445;27;45405;-58
2022/12/23 10:54:04;;;;;;;;;0.00;0.00;;;;;15.96;83.51;100216.56;5110452;27;45766;-58
2022/12/23 10:56:30;;;;;;;;;0.00;0.00;;;;;15.97;83.88;100212.88;5101734;27;46375;-58
2022/12/23 10:58:58;;;;;;;;;0.00;0.00;;;;;15.99;83.33;100221.72;5080671;27;45861;-58
2022/12/23 11:01:24;;;;;;;;;0.00;0.00;;;;;16.02;83.40;100210.75;5103892;27;45409;-58
2022/12/23 11:04:06;;;;;;;;;1.50;0.00;;;;;16.04;83.40;100200.78;5108040;27;45459;-58
2022/12/23 11:06:36;;;;;;;;;0.00;0.00;;;;;16.04;83.26;100208.88;5085898;27;45418;-58
2022/12/23 11:09:03;;;;;;;;;0.00;0.00;;;;;16.06;83.45;100215.00;5112387;27;45303;-58
2022/12/23 11:11:55;;;;;;;;;0.00;0.00;;;;;16.09;83.05;100217.50;5107405;27;45416;-58
2022/12/23 11:14:37;;;;;;;;;1.00;0.00;;;;;16.10;83.06;100224.59;5105874;27;45304;-58
2022/12/23 11:17:04;;;;;;;;;0.00;0.00;;;;;16.09;82.76;100234.53;5105749;27;45432;-58
2022/12/23 11:19:30;;;;;;;;;0.00;0.00;;;;;16.12;82.77;100238.81;5093205;27;45440;-58
2022/12/23 11:21:58;;;;;;;;;0.00;0.00;;;;;16.10;82.80;100238.06;5112544;27;45325;-58
2022/12/23 11:24:25;;;;;;;;;0.00;0.00;;;;;16.17;82.66;100239.44;5105535;27;45393;-58
2022/12/23 11:27:10;;;;;;;;;0.00;0.00;;;;;16.20;82.58;100263.44;5105693;27;46151;-58
2022/12/23 11:29:38;;;;;;;;;0.00;0.00;;;;;16.19;82.39;100260.84;5108907;27;45339;-58
2022/12/23 11:32:25;;;;;;;;;0.00;0.00;;;;;16.20;82.69;100247.28;5109205;27;45376;-58
2022/12/23 11:34:51;;;;;;;;;0.00;0.00;;;;;16.22;82.39;100245.38;5116024;27;45333;-58
2022/12/23 11:37:40;;;;;;;;;0.00;0.00;;;;;16.22;82.16;100241.81;5102199;27;45357;-58
2022/12/23 11:40:19;;;;;;;;;0.25;0.25;;;;;16.24;82.24;100245.28;5106528;27;45535;-58
2022/12/23 11:42:45;;;;;;;;;0.00;0.00;;;;;16.23;82.07;100254.31;5091310;27;45273;-58
2022/12/23 11:45:20;;;;;;;;;0.00;0.00;;;;;16.25;81.85;100237.06;5108791;27;45381;-58
2022/12/23 11:47:45;;;;;;;;;0.25;0.00;;;;;16.26;81.68;100241.50;5079842;27;45572;-58
2022/12/23 11:50:31;;;;;;;;;0.00;0.00;;;;;16.30;81.38;100229.59;5110182;27;45293;-58
2022/12/23 11:53:09;;;;;;;;;2.50;1.25;;;;;16.33;81.76;100236.59;5108547;27;45329;-58
2022/12/23 11:55:41;;;;;;;;;3.25;3.25;;;;;16.34;81.72;100222.19;5109867;27;45537;-59
2022/12/23 11:58:17;;;;;;;;;1.00;0.00;;;;;16.38;81.58;100230.91;5085307;27;45456;-58
2022/12/23 12:00:50;;;;;;;;;0.25;0.00;;;;;16.38;81.03;100222.84;5114299;27;45556;-58
2022/12/23 12:03:20;;;;;;;;;0.00;0.00;;;;;16.40;80.82;100229.00;5077241;27;45381;-58
2022/12/23 12:05:49;;;;;;;;;0.75;0.75;;;;;16.38;81.27;100229.09;5095483;27;45719;-59
2022/12/23 12:08:20;;;;;;;;;0.00;0.00;;;;;16.41;80.98;100230.72;5114240;27;46166;-58